Latest Weather Observations for Hamilton

IDV60801

Issued at 5:12 pm EST Sunday 11 April 2021 (issued every 10 minutes, with the page automatically refreshed every 10 minutes)

About weather observations | Map of weather stations | Latest weather observations for VIC | Other Formats
Station Details ID: 090173 Name: HAMILTON AIRPORT Lat: -37.65 Lon: 142.06 Height: 241.1 m
Data from the previous 72 hours. | See also: Recent months at Hamilton
Date/Time
EST
Temp
°C
App
Temp
°C
Dew
Point
°C
Rel
Hum
%
Delta-T
°C
Wind Press
QNH
hPa
Press
MSL
hPa
Rain since
9am
mm
Dir  Spd
km/h
Gust
km/h
Spd
kts
Gust
kts
11/05:00pm 11.6 5.6 5.3 65 2.9 SSW 26 39 14 21 1021.5 1021.3 0.0
11/04:30pm 12.3 5.0 4.3 58 3.7 SSW 32 41 17 22 1021.2 1021.0 0.0
11/04:00pm 12.8 5.3 3.7 54 4.1 SSW 32 43 17 23 1020.9 1020.7 0.0
11/03:30pm 13.7 6.4 4.3 53 4.4 SSW 32 41 17 22 1020.7 1020.5 0.0
11/03:01pm 12.4 5.1 4.6 59 3.6 SSW 32 50 17 27 1020.6 1020.4 0.0
11/03:00pm 12.5 5.1 4.2 57 3.8 SSW 32 44 17 24 1020.5 1020.3 0.0
11/02:30pm 13.1 4.9 2.9 50 4.6 SW 35 44 19 24 1020.1 1019.9 0.0
11/02:00pm 12.9 6.8 4.6 57 3.8 SSW 26 41 14 22 1020.0 1019.8 0.0
11/01:30pm 12.9 3.9 4.6 57 3.9 SSW 41 54 22 29 1019.9 1019.7 0.0
11/01:18pm 13.1 5.8 2.6 49 4.7 SSW 30 50 16 27 1019.7 1019.5 0.0
11/01:00pm 12.7 4.8 4.4 57 3.8 SW 35 48 19 26 1019.9 1019.7 0.0
11/12:30pm 11.6 4.5 6.3 70 2.5 SSW 33 48 18 26 1020.0 1019.8 0.0
11/12:18pm 10.7 3.2 6.5 75 2.0 SSW 35 56 19 30 1020.1 1019.9 0.0
11/12:00pm 12.5 5.3 5.7 63 3.2 SSW 33 46 18 25 1019.8 1019.6 0.0
11/11:37am 11.2 4.2 5.9 70 2.5 SSW 32 50 17 27 1019.9 1019.7 0.0
11/11:30am 12.1 6.1 7.0 71 2.5 SSW 28 33 15 18 1019.8 1019.6 0.0
11/11:23am 10.6 3.5 6.4 75 2.0 SSW 33 52 18 28 1019.9 1019.7 0.0
11/11:00am 11.9 5.2 5.5 65 3.0 SSW 30 41 16 22 1019.7 1019.5 0.0
11/10:30am 11.3 1.8 4.7 64 3.0 SW 44 56 24 30 1019.4 1019.3 0.0
11/10:22am 11.4 3.8 5.7 68 2.7 SW 35 54 19 29 1019.3 1019.2 0.0
11/10:00am 11.1 3.9 5.8 70 2.5 SW 33 41 18 22 1019.3 1019.2 0.0
11/09:44am 10.2 2.6 5.8 74 2.1 SSW 35 54 19 29 1019.3 1019.2 0.0
11/09:30am 10.5 3.5 6.1 74 2.1 SW 32 46 17 25 1019.2 1019.1 0.0
11/09:00am 9.8 2.8 6.0 77 1.8 SW 32 41 17 22 1018.8 1018.6 4.4
11/08:30am 8.8 2.5 5.7 81 1.4 SW 28 37 15 20 1018.5 1018.3 4.4
11/08:00am 7.8 2.7 5.8 87 0.9 WSW 22 30 12 16 1018.0 1017.8 4.4
11/07:30am 6.7 1.7 4.7 87 0.9 SW 20 30 11 16 1017.6 1017.4 4.4
11/07:00am 6.8 1.4 4.6 86 1.0 WSW 22 30 12 16 1017.2 1017.0 4.4
11/06:30am 6.6 0.8 4.4 86 1.0 SW 24 32 13 17 1016.6 1016.4 4.4
11/06:00am 6.8 1.1 5.1 89 0.8 WSW 24 32 13 17 1016.4 1016.2 4.4
11/05:30am 6.0 1.2 4.5 90 0.7 W 19 22 10 12 1016.1 1015.9 4.4
11/05:00am 5.8 1.3 4.3 90 0.6 WSW 17 22 9 12 1015.7 1015.5 4.4
11/04:30am 5.7 1.5 4.0 89 0.7 WSW 15 20 8 11 1015.3 1015.0 4.4
11/04:00am 6.2 0.7 4.2 87 0.9 WSW 22 30 12 16 1014.9 1014.7 4.4
11/03:30am 6.0 1.0 3.8 86 0.9 WSW 19 28 10 15 1014.7 1014.5 4.4
11/03:00am 6.1 1.2 4.3 88 0.8 SW 19 28 10 15 1014.8 1014.6 4.4
11/02:30am 6.1 1.6 4.1 87 0.9 WSW 17 22 9 12 1014.9 1014.7 4.2
11/02:00am 6.2 1.3 4.2 87 0.9 WSW 19 28 10 15 1014.7 1014.5 4.2
11/01:30am 6.8 1.5 5.1 89 0.8 WSW 22 35 12 19 1014.5 1014.3 4.0
11/01:00am 6.9 2.2 5.2 89 0.8 WSW 19 28 10 15 1014.6 1014.4 3.8
11/12:30am 7.1 2.8 5.1 87 0.9 W 17 22 9 12 1014.4 1014.2 3.8
11/12:00am 6.8 1.1 4.8 87 0.9 WSW 24 33 13 18 1014.4 1014.2 3.8
 
Date/Time
EST
Temp
°C
App
Temp
°C
Dew
Point
°C
Rel
Hum
%
Delta-T
°C
Wind Press
QNH
hPa
Press
MSL
hPa
Rain since
9am
mm
Dir  Spd
km/h
Gust
km/h
Spd
kts
Gust
kts
10/11:30pm 6.8 1.1 4.8 87 0.9 WSW 24 33 13 18 1014.2 1014.0 3.8
10/11:00pm 7.2 2.0 5.3 88 0.9 WSW 22 30 12 16 1014.0 1013.8 3.6
10/10:30pm 7.5 3.4 6.0 90 0.7 W 17 22 9 12 1013.8 1013.6 3.4
10/10:00pm 7.1 2.9 5.6 90 0.7 W 17 24 9 13 1013.5 1013.3 3.4
10/09:30pm 7.4 3.2 5.9 90 0.7 WSW 17 20 9 11 1013.5 1013.3 3.4
10/09:00pm 7.8 0.8 6.1 89 0.8 WSW 32 44 17 24 1013.3 1013.1 3.2
10/08:30pm 8.1 3.1 6.4 89 0.8 WSW 22 30 12 16 1013.0 1012.8 2.6
10/08:00pm 8.1 2.3 6.1 87 0.9 WSW 26 33 14 18 1012.9 1012.7 2.4
10/07:30pm 8.7 3.9 5.8 82 1.3 W 20 30 11 16 1012.3 1012.1 1.4
10/07:00pm 8.9 4.1 5.8 81 1.4 W 20 26 11 14 1012.1 1011.9 1.4
10/06:30pm 8.9 3.1 6.2 83 1.3 WSW 26 37 14 20 1011.9 1011.6 1.4
10/06:00pm 8.2 3.1 6.0 86 1.0 SW 22 30 12 16 1011.8 1011.5 1.2
10/05:37pm 9.2 3.9 6.8 85 1.1 SW 24 32 13 17 1012.0 1011.7 1.2
10/05:30pm 9.1 3.7 6.5 84 1.2 SW 24 35 13 19 1011.8 1011.5 1.2
10/05:19pm 9.6 2.3 5.6 76 1.8 WSW 33 54 18 29 1011.7 1011.4 1.2
10/05:11pm 11.8 4.6 4.8 62 3.2 WSW 32 50 17 27 1011.3 1011.0 0.2
10/05:00pm 11.7 3.8 4.4 61 3.3 WSW 35 50 19 27 1011.2 1010.9 0.2
10/04:30pm 11.6 4.2 5.0 64 3.1 WSW 33 44 18 24 1011.3 1011.0 0.2
10/04:00pm 11.9 5.5 6.8 71 2.5 WSW 30 50 16 27 1011.3 1011.0 0.2
10/03:30pm 10.4 2.9 6.4 76 1.9 SW 35 46 19 25 1011.3 1011.0 0.0
10/03:06pm 13.7 5.5 2.9 48 4.9 WSW 35 54 19 29 1010.6 1010.4 0.0
10/03:00pm 13.6 6.0 3.9 52 4.5 SW 33 46 18 25 1010.7 1010.5 0.0
10/02:30pm 14.6 6.9 6.9 60 3.8 WSW 37 50 20 27 1010.6 1010.4 0.0
10/02:12pm 14.8 7.1 5.3 53 4.5 WSW 35 54 19 29 1010.7 1010.5 0.0
10/02:00pm 14.1 5.3 5.5 56 4.1 SW 41 56 22 30 1010.7 1010.5 0.0
10/01:41pm 13.4 5.6 4.8 56 4.0 WSW 35 59 19 32 1010.7 1010.5 0.0
10/01:40pm 13.3 5.4 4.5 55 4.1 WSW 35 59 19 32 1010.7 1010.5 0.0
10/01:30pm 14.0 7.9 6.4 60 3.7 W 28 41 15 22 1010.5 1010.3 0.0
10/01:00pm 13.3 5.4 6.4 63 3.3 WSW 37 46 20 25 1011.0 1010.7 0.0
10/12:33pm 13.8 7.3 4.9 55 4.2 WSW 28 50 15 27 1011.0 1010.7 0.0
10/12:30pm 14.0 7.9 6.4 60 3.7 WSW 28 39 15 21 1010.9 1010.6 0.0
10/12:00pm 14.0 7.2 6.8 62 3.5 WSW 32 39 17 21 1011.0 1010.7 0.0
10/11:30am 14.0 7.1 6.6 61 3.6 WSW 32 41 17 22 1011.0 1010.7 0.0
10/11:00am 14.7 8.3 6.8 59 3.9 WSW 30 41 16 22 1010.6 1010.4 0.0
10/10:30am 13.9 7.3 8.5 70 2.7 WSW 33 43 18 23 1010.9 1010.6 0.0
10/10:00am 12.6 7.4 10.3 86 1.2 SW 28 43 15 23 1010.7 1010.5 0.0
10/09:44am 11.7 6.5 10.3 91 0.7 WSW 28 39 15 21 1010.5 1010.3 0.0
10/09:30am 11.5 6.0 10.4 93 0.6 WSW 30 41 16 22 1010.5 1010.3 0.0
10/09:14am 11.7 7.0 10.8 94 0.5 WSW 26 35 14 19 1010.3 1010.1 0.0
10/09:00am 11.4 6.3 10.5 94 0.5 WSW 28 37 15 20 1010.2 1010.0 1.0
10/08:30am 11.4 7.4 10.3 93 0.6 W 22 32 12 17 1009.7 1009.5 0.2
10/08:06am 11.4 7.4 10.3 93 0.6 WNW 22 44 12 24 1009.5 1009.3 0.0
10/08:00am 11.5 8.1 10.4 93 0.6 WNW 19 26 10 14 1009.5 1009.3 0.0
10/07:30am 11.1 7.5 10.0 93 0.6 WNW 19 26 10 14 1009.2 1009.0 0.0
10/07:00am 11.0 7.4 9.9 93 0.6 WNW 19 26 10 14 1009.2 1009.0 0.0
10/06:30am 10.9 7.3 9.8 93 0.6 W 19 30 10 16 1009.1 1008.9 0.0
10/06:23am 10.9 7.3 9.8 93 0.6 WNW 19 30 10 16 1009.1 1008.9 0.0
10/06:05am 10.9 7.3 9.8 93 0.6 WNW 19 24 10 13 1008.9 1008.7 0.0
10/06:00am 10.9 7.7 9.8 93 0.6 WNW 17 22 9 12 1008.9 1008.7 0.0
10/05:30am 10.7 7.4 9.6 93 0.6 WNW 17 24 9 13 1008.7 1008.5 0.0
10/05:00am 10.4 6.6 9.2 92 0.6 NW 19 22 10 12 1008.8 1008.6 0.0
10/04:44am 10.4 6.4 9.2 92 0.6 WNW 20 24 11 13 1008.8 1008.6 0.0
10/04:30am 10.5 6.1 8.9 90 0.8 WNW 22 33 12 18 1008.9 1008.7 0.0
10/04:24am 10.6 6.6 8.9 89 0.9 WNW 20 28 11 15 1008.9 1008.7 0.0
10/04:12am 10.6 6.6 8.9 89 0.9 NW 20 26 11 14 1008.7 1008.5 0.0
10/04:00am 10.4 6.9 8.7 89 0.8 NW 17 22 9 12 1008.8 1008.6 0.0
10/03:30am 10.2 6.3 8.6 90 0.8 NW 19 22 10 12 1009.0 1008.8 0.0
10/03:00am 9.9 7.1 8.5 91 0.7 NW 13 15 7 8 1009.3 1009.1 0.0
10/02:30am 9.7 7.6 8.3 91 0.7 NNW 9 13 5 7 1009.5 1009.3 0.0
10/02:00am 9.7 6.8 8.1 90 0.8 NNW 13 17 7 9 1009.8 1009.6 0.0
10/01:30am 9.6 6.7 8.0 90 0.8 NW 13 15 7 8 1010.1 1009.9 0.0
10/01:00am 9.9 6.6 8.2 89 0.8 WNW 15 19 8 10 1010.1 1009.9 0.0
10/12:30am 9.9 7.0 8.3 90 0.8 NW 13 17 7 9 1010.5 1010.3 0.0
10/12:00am 9.1 6.8 7.5 90 0.8 NW 9 13 5 7 1010.6 1010.4 0.0
 
Date/Time
EST
Temp
°C
App
Temp
°C
Dew
Point
°C
Rel
Hum
%
Delta-T
°C
Wind Press
QNH
hPa
Press
MSL
hPa
Rain since
9am
mm
Dir  Spd
km/h
Gust
km/h
Spd
kts
Gust
kts
09/11:30pm 9.8 8.0 8.1 89 0.8 NW 7 11 4 6 1011.1 1010.8 0.0
09/11:05pm 10.0 7.8 7.9 87 1.0 SW 9 13 5 7 1011.3 1011.0 0.0
09/11:00pm 10.2 7.7 8.1 87 1.0 WSW 11 17 6 9 1011.3 1011.0 0.0
09/10:47pm 10.6 6.5 7.8 83 1.4 SW 19 24 10 13 1011.6 1011.3 0.0
09/10:30pm 11.6 8.8 6.9 73 2.3 WSW 11 17 6 9 1011.6 1011.3 0.0
09/10:00pm 11.7 9.2 6.6 71 2.5 WNW 9 13 5 7 1011.5 1011.2 0.0
09/09:30pm 11.6 9.1 6.5 71 2.4 WNW 9 11 5 6 1011.6 1011.3 0.0
09/09:00pm 11.7 9.5 6.4 70 2.5 W 7 11 4 6 1011.5 1011.2 0.0
09/08:30pm 12.0 9.1 6.3 68 2.7 SW 11 15 6 8 1011.6 1011.3 0.0
09/08:00pm 12.2 8.1 6.0 66 3.0 SW 17 24 9 13 1011.5 1011.2 0.0
09/07:30pm 12.4 8.3 6.0 65 3.1 SW 17 20 9 11 1011.3 1011.0 0.0
09/07:00pm 12.7 9.0 6.3 65 3.1 SW 15 19 8 10 1011.1 1010.8 0.0
09/06:30pm 12.8 9.8 5.9 63 3.3 SW 11 13 6 7 1010.7 1010.5 0.0
09/06:00pm 13.3 9.5 5.7 60 3.6 SW 15 22 8 12 1010.5 1010.3 0.0
09/05:30pm 14.0 9.2 5.6 57 4.0 SW 20 24 11 13 1010.3 1010.1 0.0
09/05:00pm 15.0 10.2 5.8 54 4.5 SSW 20 24 11 13 1010.4 1010.2 0.0
09/04:30pm 15.9 10.8 6.1 52 4.8 SSW 22 26 12 14 1010.5 1010.3 0.0
09/04:00pm 14.9 9.9 6.5 57 4.1 SSW 22 30 12 16 1010.6 1010.4 0.0
09/03:30pm 16.4 10.5 7.6 56 4.5 SSW 28 35 15 19 1010.5 1010.3 0.0
09/03:00pm 16.4 12.5 7.1 54 4.7 SW 17 24 9 13 1010.5 1010.3 0.0
09/02:30pm 15.5 10.1 6.5 55 4.4 WSW 24 35 13 19 1010.6 1010.4 0.0
09/02:00pm 15.1 10.5 6.7 57 4.2 SSW 20 24 11 13 1011.0 1010.7 0.0
09/01:30pm 15.5 11.3 8.3 62 3.7 SSW 20 30 11 16 1011.3 1011.0 0.0
09/01:00pm 15.1 11.2 7.2 59 3.9 WSW 17 26 9 14 1011.7 1011.4 0.0
09/12:30pm 15.0 10.2 7.5 61 3.8 SW 22 28 12 15 1011.9 1011.6 0.0
09/12:00pm 15.8 10.2 7.1 56 4.4 SW 26 35 14 19 1011.8 1011.5 0.0
09/11:30am 15.2 10.4 7.5 60 3.9 SW 22 32 12 17 1011.9 1011.6 0.0
09/11:00am 15.1 9.2 7.4 60 3.9 SW 28 37 15 20 1012.0 1011.7 0.0
09/10:30am 14.5 8.3 7.8 64 3.4 SW 30 39 16 21 1012.1 1011.9 0.0
09/10:00am 13.2 8.2 8.1 71 2.6 SW 24 32 13 17 1012.2 1012.0 0.0
09/09:30am 13.7 8.7 8.1 69 2.8 SW 24 35 13 19 1011.9 1011.6 0.0
09/09:00am 13.0 9.4 8.3 73 2.4 WSW 17 22 9 12 1011.5 1011.2 4.4
09/08:30am 11.6 8.3 7.9 78 1.8 WSW 15 20 8 11 1011.5 1011.2 4.4
09/08:00am 10.9 6.2 7.6 80 1.6 SW 22 32 12 17 1011.5 1011.2 4.4
09/07:30am 10.4 7.4 7.5 82 1.4 WSW 13 17 7 9 1010.7 1010.5 4.4
09/07:00am 9.8 7.2 7.6 86 1.1 WSW 11 13 6 7 1010.3 1010.1 4.4
09/06:30am 9.3 6.2 7.3 87 1.0 WSW 13 17 7 9 1010.2 1010.0 4.4
09/06:00am 9.5 6.3 6.9 84 1.2 WSW 13 15 7 8 1010.1 1009.9 4.4
09/05:30am 10.6 7.6 7.7 82 1.4 SW 13 17 7 9 1010.0 1009.8 4.4
09/05:00am 10.8 7.2 8.2 84 1.3 SW 17 24 9 13 1009.8 1009.6 4.4
09/04:30am 10.7 7.6 9.0 89 0.9 SW 15 20 8 11 1009.6 1009.4 4.4
09/04:00am 10.6 7.6 9.2 91 0.7 SW 15 19 8 10 1009.4 1009.2 4.4
09/03:30am 11.1 7.3 9.9 92 0.6 SSW 20 30 11 16 1009.1 1008.9 4.4
09/03:13am 11.7 7.7 10.6 93 0.6 SSW 22 28 12 15 1009.2 1009.0 4.4
09/03:00am 11.9 8.4 10.8 93 0.6 SSW 20 26 11 14 1009.2 1009.0 4.4
09/02:30am 12.0 9.1 11.1 94 0.5 SW 17 20 9 11 1009.2 1009.0 4.4
09/02:06am 12.1 7.9 11.2 94 0.5 SSW 24 37 13 20 1009.1 1008.9 4.2
09/02:00am 12.0 6.7 11.1 94 0.5 SSW 30 41 16 22 1009.2 1009.0 4.2
09/01:56am 12.1 6.4 11.2 94 0.5 SSW 32 41 17 22 1009.2 1009.0 4.2
09/01:42am 12.3 8.6 11.5 95 0.4 SSW 22 28 12 15 1009.1 1008.9 4.2
09/01:38am 12.4 9.1 11.6 95 0.4 SSW 20 28 11 15 1009.1 1008.9 4.2
09/01:30am 12.3 9.0 11.5 95 0.4 SSW 20 26 11 14 1009.0 1008.8 4.2
09/01:08am 12.4 7.6 11.6 95 0.4 SSW 28 35 15 19 1009.0 1008.8 4.2
09/01:00am 12.5 7.3 11.7 95 0.4 SSW 30 43 16 23 1008.9 1008.7 4.2
09/12:55am 12.5 6.9 11.6 94 0.5 SSW 32 43 17 23 1008.8 1008.6 4.2
09/12:30am 12.8 8.1 11.9 94 0.5 SSW 28 37 15 20 1008.6 1008.4 4.0
09/12:02am 13.5 8.9 12.2 92 0.7 SW 28 48 15 26 1008.4 1008.1 3.4
09/12:00am 14.7 11.3 13.6 93 0.6 WSW 24 32 13 17 1008.2 1007.9 3.4
 
Date/Time
EST
Temp
°C
App
Temp
°C
Dew
Point
°C
Rel
Hum
%
Delta-T
°C
Wind Press
QNH
hPa
Press
MSL
hPa
Rain since
9am
mm
Dir  Spd
km/h
Gust
km/h
Spd
kts
Gust
kts
08/11:38pm 15.0 11.6 13.7 92 0.7 W 24 30 13 16 1008.1 1007.8 3.2
08/11:30pm 15.0 12.0 13.7 92 0.7 W 22 32 12 17 1008.0 1007.7 3.0
08/11:14pm 15.4 13.8 13.9 91 0.9 WNW 15 20 8 11 1007.9 1007.6 2.6
08/11:01pm 15.5 14.3 13.9 90 0.9 W 13 17 7 9 1008.1 1007.8 2.4
08/11:00pm 15.5 14.3 13.9 90 0.9 W 13 17 7 9 1008.1 1007.8 2.2
08/10:30pm 16.0 14.6 13.5 85 1.4 W 13 17 7 9 1008.0 1007.7 0.6
08/10:00pm 16.2 15.3 12.7 80 2.0 WNW 9 13 5 7 1007.9 1007.6 0.2
08/09:30pm 16.0 15.1 12.6 80 1.9 WSW 9 11 5 6 1007.7 1007.4 0.0
08/09:00pm 16.9 16.5 12.4 75 2.5 NW 6 7 3 4 1007.5 1007.2 0.0
08/08:30pm 17.1 15.6 12.0 72 2.8 WNW 11 15 6 8 1007.7 1007.4 0.0
08/08:00pm 18.0 16.9 11.8 67 3.5 W 9 13 5 7 1007.7 1007.4 0.0
08/07:30pm 18.7 17.0 9.8 56 4.8 WSW 9 15 5 8 1007.8 1007.5 0.0
08/07:00pm 19.4 14.1 8.4 49 5.8 WSW 26 33 14 18 1007.9 1007.6 0.0
08/06:30pm 21.1 17.0 4.2 33 8.3 W 15 24 8 13 1007.0 1006.7 0.0
08/06:00pm 21.7 17.8 3.4 30 8.9 WNW 13 17 7 9 1006.8 1006.5 0.0
08/05:30pm 22.3 18.4 3.4 29 9.2 W 13 19 7 10 1007.0 1006.7 0.0

Other formats

Comma delimited format used in spreadsheet applications
http://www.bom.gov.au/fwo/IDV60801/IDV60801.94829.axf

JavaScript Object Notation format (JSON) in row-major order
http://www.bom.gov.au/fwo/IDV60801/IDV60801.94829.json

Data quality

Most of these data are generated automatically and are frequently updated. Quality checks on data are not normally performed. It is possible for incorrect values to appear. Refer to information at About Latest Weather Observations and please check the disclaimer before using these data.